Time;durP1;ratioP1;P1;durP2;ratioP2;P2;SDS_P1;SDS_P2;PMS_P1;PMS_P2;Temp;Humidity;BMP_temperature;BMP_pressure;BME280_temperature;BME280_humidity;BME280_pressure;Samples;Min_cycle;Max_cycle;Signal;HPM_P1;HPM_P2
2022/11/28 00:02:01;;;;;;;28.88;25.17;;;;;;;;;;5075297;27;21014;-71
2022/11/28 00:04:26;;;;;;;32.25;28.30;;;;;;;;;;5104142;27;20077;-72
2022/11/28 00:06:53;;;;;;;37.42;33.33;;;;;;;;;;5099395;27;20032;-72
2022/11/28 00:09:19;;;;;;;37.83;32.70;;;;;;;;;;5099938;27;20325;-72
2022/11/28 00:11:45;;;;;;;36.55;32.60;;;;;;;;;;5094577;27;20063;-72
2022/11/28 00:14:11;;;;;;;39.08;32.45;;;;;;;;;;5104593;27;20028;-72
2022/11/28 00:16:36;;;;;;;78.55;56.90;;;;;;;;;;5100485;27;20030;-72
2022/11/28 00:19:02;;;;;;;373.92;261.02;;;;;;;;;;5101828;27;20134;-70
2022/11/28 00:21:28;;;;;;;178.82;127.32;;;;;;;;;;5103958;27;20520;-73
2022/11/28 00:23:53;;;;;;;137.38;96.10;;;;;;;;;;5104377;27;20057;-74
2022/11/28 00:26:20;;;;;;;103.70;79.03;;;;;;;;;;5104693;27;20027;-72
2022/11/28 00:28:46;;;;;;;83.75;68.13;;;;;;;;;;5096098;27;20054;-71
2022/11/28 00:31:12;;;;;;;80.53;62.15;;;;;;;;;;5097643;27;20055;-74
2022/11/28 00:33:38;;;;;;;82.00;65.47;;;;;;;;;;5093329;27;20087;-74
2022/11/28 00:36:03;;;;;;;78.63;62.88;;;;;;;;;;5105094;27;20035;-72
2022/11/28 00:38:29;;;;;;;67.75;55.95;;;;;;;;;;5104556;27;20101;-72
2022/11/28 00:40:59;;;;;;;73.05;60.78;;;;;;;;;;5086647;28;21043;-74
2022/11/28 00:43:24;;;;;;;95.70;76.50;;;;;;;;;;5103371;27;20027;-71
2022/11/28 00:45:50;;;;;;;117.53;94.63;;;;;;;;;;5104468;27;20492;-72
2022/11/28 00:48:15;;;;;;;120.57;94.40;;;;;;;;;;5096093;27;20031;-73
2022/11/28 00:50:40;;;;;;;134.52;108.15;;;;;;;;;;5101000;27;20055;-72
2022/11/28 00:53:06;;;;;;;170.07;128.45;;;;;;;;;;5099929;27;20031;-72
2022/11/28 00:55:31;;;;;;;177.80;136.60;;;;;;;;;;5098021;27;20026;-72
2022/11/28 00:57:56;;;;;;;184.45;139.25;;;;;;;;;;5100403;27;20031;-72
2022/11/28 01:00:22;;;;;;;205.73;159.52;;;;;;;;;;5080013;27;20074;-73
2022/11/28 01:02:47;;;;;;;166.57;128.65;;;;;;;;;;5097837;27;20122;-73
2022/11/28 01:05:13;;;;;;;170.70;130.55;;;;;;;;;;5098582;27;20023;-73
2022/11/28 01:07:41;;;;;;;150.35;118.82;;;;;;;;;;5104503;27;20358;-74
2022/11/28 01:10:06;;;;;;;180.65;141.60;;;;;;;;;;5103390;27;20439;-72
2022/11/28 01:12:32;;;;;;;197.88;156.73;;;;;;;;;;5085170;27;20088;-72
2022/11/28 01:14:58;;;;;;;181.70;141.18;;;;;;;;;;5094622;27;20031;-73
2022/11/28 01:17:23;;;;;;;180.43;135.15;;;;;;;;;;5100104;27;20015;-73
2022/11/28 01:19:49;;;;;;;223.55;161.07;;;;;;;;;;5096205;27;20038;-74
2022/11/28 01:22:14;;;;;;;173.02;127.68;;;;;;;;;;5102511;28;20035;-72
2022/11/28 01:24:39;;;;;;;176.93;131.15;;;;;;;;;;5104415;27;20020;-72
2022/11/28 01:27:05;;;;;;;178.05;133.88;;;;;;;;;;5104027;27;20419;-74
2022/11/28 01:29:30;;;;;;;164.00;122.47;;;;;;;;;;5104071;27;20442;-74
2022/11/28 01:31:56;;;;;;;176.30;133.43;;;;;;;;;;5103152;27;20935;-74
2022/11/28 01:34:21;;;;;;;153.02;119.47;;;;;;;;;;5092777;27;20027;-74
2022/11/28 01:36:47;;;;;;;136.20;105.47;;;;;;;;;;5102214;27;20458;-75
2022/11/28 01:39:14;;;;;;;109.68;82.88;;;;;;;;;;5085035;27;20964;-74
2022/11/28 01:41:40;;;;;;;63.22;52.67;;;;;;;;;;5104064;27;20055;-72
2022/11/28 01:44:14;;;;;;;118.38;85.60;;;;;;;;;;5104487;27;20066;-72
2022/11/28 01:46:39;;;;;;;131.50;94.35;;;;;;;;;;5086558;27;20118;-72
2022/11/28 01:49:08;;;;;;;117.53;83.53;;;;;;;;;;5092004;27;20518;-72
2022/11/28 01:51:34;;;;;;;111.38;81.68;;;;;;;;;;5081835;28;20028;-71
2022/11/28 01:54:00;;;;;;;113.07;83.22;;;;;;;;;;5103444;27;20429;-73
2022/11/28 01:56:27;;;;;;;116.63;88.47;;;;;;;;;;5097605;27;20446;-73
2022/11/28 01:58:58;;;;;;;106.75;80.55;;;;;;;;;;5099175;27;20018;-72
2022/11/28 02:01:24;;;;;;;99.60;72.70;;;;;;;;;;5102303;27;20028;-72
2022/11/28 02:03:50;;;;;;;87.43;64.78;;;;;;;;;;5094079;27;20023;-73
2022/11/28 02:06:17;;;;;;;91.65;66.85;;;;;;;;;;5100852;27;20027;-73
2022/11/28 02:08:42;;;;;;;88.47;68.15;;;;;;;;;;5101134;27;20025;-72
2022/11/28 02:11:27;;;;;;;88.50;69.13;;;;;;;;;;5102391;27;20026;-73
2022/11/28 02:13:57;;;;;;;90.45;68.72;;;;;;;;;;5102762;27;20019;-74
2022/11/28 02:16:26;;;;;;;87.68;66.20;;;;;;;;;;5098975;27;20030;-72
2022/11/28 02:18:58;;;;;;;77.78;61.72;;;;;;;;;;5093577;27;20059;-72
2022/11/28 02:21:23;;;;;;;81.43;64.32;;;;;;;;;;5096716;27;20463;-72
2022/11/28 02:24:07;;;;;;;137.68;97.95;;;;;;;;;;5102164;27;20046;-74
2022/11/28 02:26:45;;;;;;;103.28;74.40;;;;;;;;;;5101662;27;20030;-73
2022/11/28 02:29:29;;;;;;;192.77;129.50;;;;;;;;;;5103128;27;21217;-74
2022/11/28 02:32:06;;;;;;;138.30;100.53;;;;;;;;;;5102155;27;20031;-73
2022/11/28 02:34:40;;;;;;;119.32;93.40;;;;;;;;;;5095196;28;20016;-72
2022/11/28 02:37:14;;;;;;;101.60;79.50;;;;;;;;;;5093458;28;20042;-73
2022/11/28 02:39:42;;;;;;;117.60;87.13;;;;;;;;;;5097190;28;20035;-72
2022/11/28 02:42:07;;;;;;;151.50;93.57;;;;;;;;;;5100369;28;20133;-73
2022/11/28 02:44:42;;;;;;;178.18;105.35;;;;;;;;;;5103978;28;20495;-71
2022/11/28 02:47:13;;;;;;;154.90;105.70;;;;;;;;;;5104251;28;20031;-71
2022/11/28 02:49:44;;;;;;;118.65;83.05;;;;;;;;;;5103188;28;20027;-71
2022/11/28 02:52:16;;;;;;;106.60;79.13;;;;;;;;;;5102133;28;20027;-71
2022/11/28 02:54:42;;;;;;;115.18;86.10;;;;;;;;;;5088080;27;20030;-71
2022/11/28 02:57:08;;;;;;;91.88;70.50;;;;;;;;;;5108135;27;20027;-72
2022/11/28 02:59:36;;;;;;;65.57;50.47;;;;;;;;;;5107475;27;21040;-72
2022/11/28 03:02:02;;;;;;;91.50;72.75;;;;;;;;;;5103573;27;20023;-72
2022/11/28 03:04:34;;;;;;;104.47;84.13;;;;;;;;;;5099059;27;20046;-72
2022/11/28 03:07:18;;;;;;;96.95;75.93;;;;;;;;;;5107455;27;20054;-72
2022/11/28 03:09:43;;;;;;;90.03;69.53;;;;;;;;;;5108152;27;20119;-73
2022/11/28 03:12:11;;;;;;;88.10;65.32;;;;;;;;;;5106222;27;20098;-72
2022/11/28 03:14:49;;;;;;;87.43;65.13;;;;;;;;;;5106962;27;20032;-74
2022/11/28 03:17:19;;;;;;;50.55;40.90;;;;;;;;;;5089585;28;20046;-72
2022/11/28 03:19:57;;;;;;;39.00;32.33;;;;;;;;;;5107246;27;20042;-72
2022/11/28 03:22:22;;;;;;;41.60;36.63;;;;;;;;;;5107120;27;20458;-73
2022/11/28 03:24:51;;;;;;;43.13;37.15;;;;;;;;;;5106254;27;20070;-73
2022/11/28 03:27:25;;;;;;;43.80;36.08;;;;;;;;;;5106963;27;20024;-74
2022/11/28 03:29:55;;;;;;;51.65;41.55;;;;;;;;;;5106079;27;20092;-72
2022/11/28 03:32:27;;;;;;;70.32;54.45;;;;;;;;;;5106318;27;20023;-72
2022/11/28 03:34:59;;;;;;;78.13;58.28;;;;;;;;;;5106685;27;20446;-73
2022/11/28 03:37:26;;;;;;;93.72;68.05;;;;;;;;;;5105827;27;20048;-71
2022/11/28 03:39:53;;;;;;;89.65;64.07;;;;;;;;;;5105594;27;20031;-72
2022/11/28 03:42:23;;;;;;;66.00;50.08;;;;;;;;;;5107079;27;20040;-73
2022/11/28 03:44:48;;;;;;;;;;;;;;;;;;5106242;27;20040;-72
2022/11/28 03:47:14;;;;;;;65.23;49.97;;;;;;;;;;5090450;27;20364;-72
2022/11/28 03:49:41;;;;;;;66.35;51.92;;;;;;;;;;5099015;27;20039;-72
2022/11/28 03:52:11;;;;;;;56.55;45.80;;;;;;;;;;5098664;27;20027;-71
2022/11/28 03:54:45;;;;;;;51.38;40.88;;;;;;;;;;5104964;27;20063;-72
2022/11/28 03:57:30;;;;;;;52.15;41.17;;;;;;;;;;5107022;27;20635;-73
2022/11/28 03:59:58;;;;;;;54.60;41.90;;;;;;;;;;5106262;27;20370;-72
2022/11/28 04:02:32;;;;;;;54.45;42.50;;;;;;;;;;5105261;27;20032;-72
2022/11/28 04:05:01;;;;;;;52.22;40.88;;;;;;;;;;5086544;28;20055;-75
2022/11/28 04:07:41;;;;;;;47.00;38.58;;;;;;;;;;5094740;27;20450;-74
2022/11/28 04:10:18;;;;;;;31.75;28.13;;;;;;;;;;5104915;27;20027;-73
2022/11/28 04:12:43;;;;;;;25.35;22.65;;;;;;;;;;5099929;27;20031;-73
2022/11/28 04:15:24;;;;;;;27.98;22.90;;;;;;;;;;5082534;27;20083;-72
2022/11/28 04:17:52;;;;;;;27.05;22.65;;;;;;;;;;5105651;27;20028;-71
2022/11/28 04:20:25;;;;;;;27.38;24.40;;;;;;;;;;5105828;27;20052;-72
2022/11/28 04:22:53;;;;;;;31.00;26.95;;;;;;;;;;5104653;27;20146;-74
2022/11/28 04:25:20;;;;;;;36.22;32.33;;;;;;;;;;5095756;27;20028;-73
2022/11/28 04:27:48;;;;;;;43.33;35.95;;;;;;;;;;5105211;27;20426;-72
2022/11/28 04:30:14;;;;;;;123.32;83.78;;;;;;;;;;5094343;27;20023;-74
2022/11/28 04:32:41;;;;;;;160.57;103.38;;;;;;;;;;5078557;28;20669;-73
2022/11/28 04:35:11;;;;;;;106.45;78.57;;;;;;;;;;5080850;27;20415;-73
2022/11/28 04:37:37;;;;;;;73.15;54.92;;;;;;;;;;5104609;27;20032;-72
2022/11/28 04:40:06;;;;;;;72.15;59.65;;;;;;;;;;5105929;27;20047;-73
2022/11/28 04:42:34;;;;;;;62.10;52.38;;;;;;;;;;5104628;27;20031;-74
2022/11/28 04:45:08;;;;;;;55.00;47.03;;;;;;;;;;5105760;27;20494;-72
2022/11/28 04:47:33;;;;;;;54.85;44.55;;;;;;;;;;5105396;27;20349;-73
2022/11/28 04:49:58;;;;;;;48.85;43.20;;;;;;;;;;5106446;27;20114;-73
2022/11/28 04:52:30;;;;;;;50.80;44.33;;;;;;;;;;5092880;27;20095;-73
2022/11/28 04:55:01;;;;;;;48.47;42.00;;;;;;;;;;5089804;27;20068;-72
2022/11/28 04:57:30;;;;;;;48.15;42.58;;;;;;;;;;5092357;27;20416;-72
2022/11/28 04:59:55;;;;;;;50.95;44.08;;;;;;;;;;5092642;27;20024;-73
2022/11/28 05:02:22;;;;;;;51.35;44.20;;;;;;;;;;5091605;27;20038;-72
2022/11/28 05:04:47;;;;;;;55.13;49.03;;;;;;;;;;5090337;27;20457;-73
2022/11/28 05:07:12;;;;;;;50.55;42.78;;;;;;;;;;5095082;27;20027;-71
2022/11/28 05:09:38;;;;;;;68.20;50.72;;;;;;;;;;5098767;27;20481;-73
2022/11/28 05:12:04;;;;;;;82.32;63.17;;;;;;;;;;5104387;27;20062;-72
2022/11/28 05:14:29;;;;;;;86.13;68.85;;;;;;;;;;5085630;27;20043;-72
2022/11/28 05:16:55;;;;;;;92.80;73.03;;;;;;;;;;5105259;27;20370;-73
2022/11/28 05:19:20;;;;;;;79.65;62.75;;;;;;;;;;5099766;27;20058;-73
2022/11/28 05:21:45;;;;;;;67.13;54.55;;;;;;;;;;5080514;27;20051;-72
2022/11/28 05:24:11;;;;;;;54.45;48.00;;;;;;;;;;5103135;27;20028;-71
2022/11/28 05:26:37;;;;;;;54.05;47.17;;;;;;;;;;5099756;27;20886;-71
2022/11/28 05:29:02;;;;;;;67.10;56.70;;;;;;;;;;5092632;27;20036;-72
2022/11/28 05:31:28;;;;;;;75.32;62.85;;;;;;;;;;5095042;27;20039;-73
2022/11/28 05:33:54;;;;;;;64.63;57.50;;;;;;;;;;5105377;27;20042;-74
2022/11/28 05:36:19;;;;;;;62.70;54.38;;;;;;;;;;5104828;27;20122;-74
2022/11/28 05:38:45;;;;;;;68.28;57.45;;;;;;;;;;5097814;27;20110;-75
2022/11/28 05:41:24;;;;;;;67.07;56.63;;;;;;;;;;5100336;27;20023;-74
2022/11/28 05:43:50;;;;;;;318.05;283.05;;;;;;;;;;5105745;27;20038;-75
2022/11/28 05:46:16;;;;;;;159.55;136.80;;;;;;;;;;5092524;27;20016;-73
2022/11/28 05:48:41;;;;;;;114.78;97.50;;;;;;;;;;5093936;27;20028;-73
2022/11/28 05:51:07;;;;;;;125.80;98.78;;;;;;;;;;5104094;27;20035;-73
2022/11/28 05:53:32;;;;;;;197.63;148.52;;;;;;;;;;5104690;27;20054;-74
2022/11/28 05:55:57;;;;;;;195.00;145.43;;;;;;;;;;5105636;27;20046;-75
2022/11/28 05:58:23;;;;;;;406.00;306.27;;;;;;;;;;5103953;27;20027;-74
2022/11/28 06:00:48;;;;;;;459.38;343.27;;;;;;;;;;5104846;27;20039;-73
2022/11/28 06:03:14;;;;;;;379.13;276.38;;;;;;;;;;5104819;27;20423;-74
2022/11/28 06:05:40;;;;;;;284.60;223.15;;;;;;;;;;5102047;27;20463;-74
2022/11/28 06:08:06;;;;;;;232.13;179.48;;;;;;;;;;5103198;27;20127;-74
2022/11/28 06:10:31;;;;;;;190.73;141.73;;;;;;;;;;5103399;27;21097;-75
2022/11/28 06:12:56;;;;;;;409.38;307.48;;;;;;;;;;5104383;27;20028;-71
2022/11/28 06:15:22;;;;;;;306.35;226.88;;;;;;;;;;5102159;27;20051;-74
2022/11/28 06:17:47;;;;;;;191.25;148.18;;;;;;;;;;5102339;28;20015;-72
2022/11/28 06:20:12;;;;;;;220.52;167.48;;;;;;;;;;5103266;27;20043;-71
2022/11/28 06:22:38;;;;;;;196.90;146.50;;;;;;;;;;5103683;27;20125;-72
2022/11/28 06:25:03;;;;;;;335.85;280.00;;;;;;;;;;5093267;27;20056;-72
2022/11/28 06:27:28;;;;;;;182.07;141.50;;;;;;;;;;5104274;28;20012;-74
2022/11/28 06:29:54;;;;;;;150.75;116.70;;;;;;;;;;5075552;28;20088;-75
2022/11/28 06:32:19;;;;;;;219.00;177.13;;;;;;;;;;5100211;27;20026;-75
2022/11/28 06:34:44;;;;;;;350.40;290.02;;;;;;;;;;5096429;28;20454;-72
2022/11/28 06:37:10;;;;;;;277.15;229.07;;;;;;;;;;5102057;28;20904;-72
2022/11/28 06:39:35;;;;;;;273.92;229.35;;;;;;;;;;5102767;28;20027;-73
2022/11/28 06:42:01;;;;;;;275.08;228.88;;;;;;;;;;5102897;28;20036;-74
2022/11/28 06:44:26;;;;;;;252.73;211.27;;;;;;;;;;5103475;28;20030;-73
2022/11/28 06:46:53;;;;;;;218.30;184.63;;;;;;;;;;5105130;28;20371;-74
2022/11/28 06:49:18;;;;;;;166.77;144.77;;;;;;;;;;5103057;28;20058;-74
2022/11/28 06:51:44;;;;;;;144.10;121.13;;;;;;;;;;5101934;28;20063;-76
2022/11/28 06:54:10;;;;;;;173.75;140.90;;;;;;;;;;5101135;28;20024;-72
2022/11/28 06:56:36;;;;;;;155.32;133.27;;;;;;;;;;5103424;28;20385;-72
2022/11/28 06:59:01;;;;;;;137.48;122.63;;;;;;;;;;5104179;28;20069;-72
2022/11/28 07:01:29;;;;;;;120.22;107.03;;;;;;;;;;5103555;28;20016;-72
2022/11/28 07:03:54;;;;;;;105.25;93.68;;;;;;;;;;5101505;28;20118;-72
2022/11/28 07:06:20;;;;;;;151.18;123.47;;;;;;;;;;5104449;28;20102;-72
2022/11/28 07:08:46;;;;;;;176.77;136.60;;;;;;;;;;5102952;28;20034;-72
2022/11/28 07:11:13;;;;;;;84.07;74.93;;;;;;;;;;5102446;28;20032;-72
2022/11/28 07:13:39;;;;;;;66.10;59.08;;;;;;;;;;5104250;28;20031;-72
2022/11/28 07:16:04;;;;;;;68.85;61.67;;;;;;;;;;5102465;28;20024;-73
2022/11/28 07:18:30;;;;;;;59.50;53.20;;;;;;;;;;5103185;28;20439;-73
2022/11/28 07:20:55;;;;;;;74.53;66.35;;;;;;;;;;5103220;28;20099;-73
2022/11/28 07:23:20;;;;;;;75.00;66.88;;;;;;;;;;5101651;28;20019;-72
2022/11/28 07:25:46;;;;;;;72.82;62.35;;;;;;;;;;5102875;28;20134;-72
2022/11/28 07:28:11;;;;;;;152.23;119.03;;;;;;;;;;5104692;28;20103;-71
2022/11/28 07:30:37;;;;;;;213.75;171.18;;;;;;;;;;5105060;28;20020;-73
2022/11/28 07:33:02;;;;;;;235.27;187.77;;;;;;;;;;5103111;28;20059;-74
2022/11/28 07:35:27;;;;;;;280.38;216.75;;;;;;;;;;5083737;28;20031;-73
2022/11/28 07:37:53;;;;;;;210.70;169.70;;;;;;;;;;5103850;28;20675;-72
2022/11/28 07:40:19;;;;;;;136.82;113.38;;;;;;;;;;5104939;27;20027;-73
2022/11/28 07:42:45;;;;;;;108.93;94.18;;;;;;;;;;5106791;27;21106;-72
2022/11/28 07:45:10;;;;;;;111.65;99.43;;;;;;;;;;5105971;27;20020;-73
2022/11/28 07:47:36;;;;;;;113.68;100.75;;;;;;;;;;5108118;27;20038;-72
2022/11/28 07:50:01;;;;;;;99.32;88.20;;;;;;;;;;5106151;27;20026;-73
2022/11/28 07:52:26;;;;;;;94.43;84.00;;;;;;;;;;5104286;27;20107;-72
2022/11/28 07:54:52;;;;;;;62.90;56.05;;;;;;;;;;5107032;27;20084;-72
2022/11/28 07:57:17;;;;;;;67.25;60.38;;;;;;;;;;5108028;27;20026;-72
2022/11/28 07:59:42;;;;;;;46.28;41.63;;;;;;;;;;5107599;27;20024;-72
2022/11/28 08:02:09;;;;;;;44.88;40.30;;;;;;;;;;5105075;27;20032;-72
2022/11/28 08:04:35;;;;;;;46.65;41.85;;;;;;;;;;5105229;27;20500;-72
2022/11/28 08:07:00;;;;;;;56.20;50.30;;;;;;;;;;5105918;27;20114;-72
2022/11/28 08:09:25;;;;;;;52.35;46.75;;;;;;;;;;5105437;27;20153;-73
2022/11/28 08:11:51;;;;;;;51.80;45.70;;;;;;;;;;5106117;27;20509;-73
2022/11/28 08:14:16;;;;;;;59.78;53.42;;;;;;;;;;5104474;27;20346;-72
2022/11/28 08:16:43;;;;;;;52.83;47.13;;;;;;;;;;5107563;27;20843;-73
2022/11/28 08:19:09;;;;;;;53.08;47.40;;;;;;;;;;5106573;27;20106;-72
2022/11/28 08:21:35;;;;;;;54.65;47.88;;;;;;;;;;5103552;27;20487;-72
2022/11/28 08:24:01;;;;;;;53.03;47.40;;;;;;;;;;5106358;27;20663;-73
2022/11/28 08:26:28;;;;;;;46.22;41.22;;;;;;;;;;5106549;27;20034;-73
2022/11/28 08:28:53;;;;;;;38.47;34.55;;;;;;;;;;5104705;27;20156;-72
2022/11/28 08:31:23;;;;;;;36.80;32.88;;;;;;;;;;5105823;27;20428;-73
2022/11/28 08:33:50;;;;;;;37.10;33.05;;;;;;;;;;5105057;27;20050;-72
2022/11/28 08:36:16;;;;;;;48.00;42.67;;;;;;;;;;5105601;27;20047;-73
2022/11/28 08:38:42;;;;;;;32.65;29.17;;;;;;;;;;5107356;27;20034;-72
2022/11/28 08:41:15;;;;;;;38.00;33.95;;;;;;;;;;5105249;27;20114;-72
2022/11/28 08:43:40;;;;;;;32.47;28.42;;;;;;;;;;5104915;27;20039;-72
2022/11/28 08:46:08;;;;;;;51.92;43.53;;;;;;;;;;5102937;27;20072;-72
2022/11/28 08:48:34;;;;;;;53.95;48.13;;;;;;;;;;5105694;27;20023;-73
2022/11/28 08:50:59;;;;;;;41.13;36.72;;;;;;;;;;5106002;27;20030;-72
2022/11/28 08:53:24;;;;;;;53.58;41.90;;;;;;;;;;5106106;27;20027;-72
2022/11/28 08:55:50;;;;;;;31.90;25.20;;;;;;;;;;5105185;27;20343;-72
2022/11/28 08:58:15;;;;;;;68.07;51.13;;;;;;;;;;5107130;27;20107;-72
2022/11/28 09:00:43;;;;;;;72.18;57.28;;;;;;;;;;5106045;27;20038;-72
2022/11/28 09:03:16;;;;;;;50.03;43.45;;;;;;;;;;5103528;27;20024;-72
2022/11/28 09:05:44;;;;;;;26.33;23.48;;;;;;;;;;5105521;27;20023;-73
2022/11/28 09:08:09;;;;;;;36.38;32.53;;;;;;;;;;5105198;27;20066;-72
2022/11/28 09:10:35;;;;;;;28.38;25.40;;;;;;;;;;5104466;27;20395;-74
2022/11/28 09:13:01;;;;;;;36.97;33.03;;;;;;;;;;5104838;27;20028;-72
2022/11/28 09:15:26;;;;;;;26.52;22.50;;;;;;;;;;5103585;27;20462;-73
2022/11/28 09:17:52;;;;;;;27.63;24.60;;;;;;;;;;5105614;27;20022;-72
2022/11/28 09:20:17;;;;;;;16.13;14.43;;;;;;;;;;5104475;27;20320;-73
2022/11/28 09:22:43;;;;;;;32.92;28.55;;;;;;;;;;5106588;27;20118;-73
2022/11/28 09:25:08;;;;;;;26.08;22.48;;;;;;;;;;5104315;27;20023;-73
2022/11/28 09:27:33;;;;;;;16.15;14.52;;;;;;;;;;5106254;27;20098;-72
2022/11/28 09:29:59;;;;;;;10.05;9.05;;;;;;;;;;5105201;27;20668;-73
2022/11/28 09:32:24;;;;;;;19.90;17.80;;;;;;;;;;5104211;27;20035;-72
2022/11/28 09:34:50;;;;;;;18.88;17.05;;;;;;;;;;5103822;27;20035;-73
2022/11/28 09:37:15;;;;;;;14.23;12.82;;;;;;;;;;5103618;27;20129;-72
2022/11/28 09:39:41;;;;;;;16.30;14.68;;;;;;;;;;5103929;27;20114;-73
2022/11/28 09:42:15;;;;;;;25.88;22.95;;;;;;;;;;5105709;27;20455;-73
2022/11/28 09:44:43;;;;;;;21.83;19.52;;;;;;;;;;5104461;27;20031;-73
2022/11/28 09:47:23;;;;;;;21.80;19.60;;;;;;;;;;5103572;27;20019;-71
2022/11/28 09:49:49;;;;;;;9.52;8.55;;;;;;;;;;5104089;27;20028;-72
2022/11/28 09:52:19;;;;;;;15.98;13.13;;;;;;;;;;5104504;27;20044;-73
2022/11/28 09:54:51;;;;;;;10.82;9.82;;;;;;;;;;5104417;27;20138;-72
2022/11/28 09:57:33;;;;;;;10.98;9.90;;;;;;;;;;5103057;27;20469;-72
2022/11/28 09:59:58;;;;;;;9.65;8.35;;;;;;;;;;5104451;27;20023;-72
2022/11/28 10:02:32;;;;;;;14.27;12.88;;;;;;;;;;5103617;27;20042;-71
2022/11/28 10:05:07;;;;;;;7.78;7.07;;;;;;;;;;5104187;27;20034;-73
2022/11/28 10:07:41;;;;;;;8.68;7.75;;;;;;;;;;5103432;27;20020;-72
2022/11/28 10:10:25;;;;;;;8.57;7.72;;;;;;;;;;5106406;27;20023;-72
2022/11/28 10:12:56;;;;;;;7.93;6.82;;;;;;;;;;5103223;27;20102;-71
2022/11/28 10:15:32;;;;;;;9.60;8.60;;;;;;;;;;5103647;27;20984;-71
2022/11/28 10:18:12;;;;;;;10.90;9.30;;;;;;;;;;5102974;27;20027;-73
2022/11/28 10:20:40;;;;;;;9.52;7.90;;;;;;;;;;5101776;27;20043;-71
2022/11/28 10:23:17;;;;;;;7.20;6.45;;;;;;;;;;5103061;27;20035;-71
2022/11/28 10:25:55;;;;;;;9.85;8.85;;;;;;;;;;5103269;27;20143;-71
2022/11/28 10:28:22;;;;;;;10.52;9.10;;;;;;;;;;5103017;28;20486;-72
2022/11/28 10:30:52;;;;;;;9.98;8.98;;;;;;;;;;5104496;28;20117;-72
2022/11/28 10:33:25;;;;;;;8.75;7.88;;;;;;;;;;5103843;28;20472;-72
2022/11/28 10:35:55;;;;;;;9.38;8.50;;;;;;;;;;5105538;28;20431;-72
2022/11/28 10:38:25;;;;;;;9.68;8.65;;;;;;;;;;5104296;28;20030;-72
2022/11/28 10:41:08;;;;;;;8.80;7.90;;;;;;;;;;5104660;28;20035;-72
2022/11/28 10:43:43;;;;;;;7.95;7.25;;;;;;;;;;5103279;28;20437;-72
2022/11/28 10:46:28;;;;;;;8.30;7.50;;;;;;;;;;5102167;28;20027;-72
2022/11/28 10:49:13;;;;;;;7.70;7.00;;;;;;;;;;5105184;28;20028;-72
2022/11/28 10:51:56;;;;;;;9.05;8.10;;;;;;;;;;5103333;28;20043;-73
2022/11/28 10:54:41;;;;;;;7.80;7.10;;;;;;;;;;5102151;28;20435;-72
2022/11/28 10:57:06;;;;;;;9.10;8.20;;;;;;;;;;5102290;28;20047;-71
2022/11/28 10:59:46;;;;;;;10.75;9.65;;;;;;;;;;5104198;28;20051;-73
2022/11/28 11:02:19;;;;;;;10.77;9.43;;;;;;;;;;5102953;28;20027;-72
2022/11/28 11:04:45;;;;;;;9.50;8.60;;;;;;;;;;5103747;28;20059;-72
2022/11/28 11:07:19;;;;;;;14.07;10.43;;;;;;;;;;5103191;28;20031;-72
2022/11/28 11:09:45;;;;;;;16.77;14.68;;;;;;;;;;5101716;28;20032;-72
2022/11/28 11:12:14;;;;;;;15.20;12.82;;;;;;;;;;5103314;28;20028;-73
2022/11/28 11:14:40;;;;;;;;;;;;;;;;;;5104301;27;20080;-72
2022/11/28 11:17:05;;;;;;;9.80;8.80;;;;;;;;;;5108487;27;19919;-72
2022/11/28 11:19:32;;;;;;;10.98;9.88;;;;;;;;;;5107317;27;20260;-72
2022/11/28 11:22:21;;;;;;;10.13;9.13;;;;;;;;;;5106387;27;20462;-71
2022/11/28 11:25:05;;;;;;;8.30;7.60;;;;;;;;;;5097303;27;20378;-72
2022/11/28 11:27:31;;;;;;;6.15;5.55;;;;;;;;;;5106961;27;20023;-71
2022/11/28 11:29:56;;;;;;;8.68;7.88;;;;;;;;;;5108549;27;20077;-72
2022/11/28 11:32:24;;;;;;;9.70;8.70;;;;;;;;;;5105670;27;20102;-71
2022/11/28 11:34:50;;;;;;;18.73;16.77;;;;;;;;;;5106866;27;20036;-71
2022/11/28 11:37:27;;;;;;;12.02;10.82;;;;;;;;;;5107308;27;20342;-72
2022/11/28 11:39:53;;;;;;;13.10;11.70;;;;;;;;;;5107879;27;20114;-72
2022/11/28 11:42:20;;;;;;;10.23;9.23;;;;;;;;;;5104202;27;20114;-73
2022/11/28 11:44:46;;;;;;;12.32;11.05;;;;;;;;;;5107895;27;20037;-72
2022/11/28 11:47:11;;;;;;;13.75;12.30;;;;;;;;;;5105566;27;20024;-72
2022/11/28 11:49:41;;;;;;;8.50;7.70;;;;;;;;;;5104616;27;20080;-72
2022/11/28 11:52:06;;;;;;;;;;;;;;;;;;5107801;27;20035;-73
2022/11/28 11:54:31;;;;;;;11.70;10.50;;;;;;;;;;5107599;27;20212;-73
2022/11/28 11:56:58;;;;;;;7.03;6.32;;;;;;;;;;5106190;27;20047;-73
2022/11/28 11:59:26;;;;;;;12.60;11.40;;;;;;;;;;5103997;27;20027;-73
2022/11/28 12:01:54;;;;;;;10.13;9.13;;;;;;;;;;5107983;27;20344;-73
2022/11/28 12:04:43;;;;;;;12.40;9.55;;;;;;;;;;5104426;27;20118;-72
2022/11/28 12:07:30;;;;;;;20.52;16.63;;;;;;;;;;5105613;27;20020;-74
2022/11/28 12:09:57;;;;;;;17.13;13.88;;;;;;;;;;5107821;27;20071;-74
2022/11/28 12:12:28;;;;;;;14.05;10.73;;;;;;;;;;5105024;27;20058;-73
2022/11/28 12:14:53;;;;;;;12.05;9.95;;;;;;;;;;5106201;27;20343;-73
2022/11/28 12:17:37;;;;;;;20.85;17.58;;;;;;;;;;5105317;27;20027;-73
2022/11/28 12:20:18;;;;;;;11.40;9.88;;;;;;;;;;5106408;27;20055;-72
2022/11/28 12:22:55;;;;;;;14.18;10.43;;;;;;;;;;5105266;27;20040;-72
2022/11/28 12:25:20;;;;;;;24.25;19.40;;;;;;;;;;5105599;27;20445;-73
2022/11/28 12:27:45;;;;;;;21.23;16.98;;;;;;;;;;5104012;27;20074;-73
2022/11/28 12:30:14;;;;;;;27.17;19.38;;;;;;;;;;5106655;27;20111;-72
2022/11/28 12:32:58;;;;;;;34.15;22.85;;;;;;;;;;5106103;27;20044;-72
2022/11/28 12:35:38;;;;;;;13.82;12.40;;;;;;;;;;5104809;27;20110;-73
2022/11/28 12:38:03;;;;;;;11.23;10.02;;;;;;;;;;5103770;27;20105;-71
2022/11/28 12:40:31;;;;;;;11.05;9.95;;;;;;;;;;5106525;27;20027;-72
2022/11/28 12:42:59;;;;;;;12.50;11.20;;;;;;;;;;5103841;27;20031;-72
2022/11/28 12:45:25;;;;;;;14.25;12.52;;;;;;;;;;5104472;27;20034;-72
2022/11/28 12:47:53;;;;;;;14.27;12.77;;;;;;;;;;5107322;27;20038;-72
2022/11/28 12:50:38;;;;;;;16.98;15.23;;;;;;;;;;5105140;27;20020;-72
2022/11/28 12:53:16;;;;;;;12.52;11.32;;;;;;;;;;5105894;27;20042;-72
2022/11/28 12:55:55;;;;;;;12.50;11.30;;;;;;;;;;5087323;28;20347;-71
2022/11/28 12:58:40;;;;;;;16.08;14.52;;;;;;;;;;5104740;27;20059;-71
2022/11/28 13:01:05;;;;;;;13.68;12.15;;;;;;;;;;5103563;27;20039;-72
2022/11/28 13:03:47;;;;;;;17.73;15.98;;;;;;;;;;5106429;27;20088;-72
2022/11/28 13:06:18;;;;;;;19.20;17.05;;;;;;;;;;5104890;27;20446;-71
2022/11/28 13:08:44;;;;;;;19.50;17.45;;;;;;;;;;5105259;27;20019;-71
2022/11/28 13:11:24;;;;;;;17.48;15.77;;;;;;;;;;5105084;27;20107;-71
2022/11/28 13:13:51;;;;;;;16.20;14.50;;;;;;;;;;5103086;27;20035;-72
2022/11/28 13:16:23;;;;;;;12.63;10.55;;;;;;;;;;5105986;27;20019;-72
2022/11/28 13:19:01;;;;;;;13.73;12.32;;;;;;;;;;5099014;27;20035;-71
2022/11/28 13:21:26;;;;;;;12.45;11.25;;;;;;;;;;5090059;27;20035;-74
2022/11/28 13:23:55;;;;;;;10.65;9.65;;;;;;;;;;5074229;27;20097;-72
2022/11/28 13:26:20;;;;;;;9.15;8.35;;;;;;;;;;5092631;27;20039;-71
2022/11/28 13:28:48;;;;;;;9.23;8.18;;;;;;;;;;5092671;27;20070;-72
2022/11/28 13:31:25;;;;;;;9.82;8.93;;;;;;;;;;5092494;27;20479;-73
2022/11/28 13:33:54;;;;;;;10.48;9.38;;;;;;;;;;5091095;27;20474;-73
2022/11/28 13:36:19;;;;;;;9.98;8.98;;;;;;;;;;5091853;27;20031;-75
2022/11/28 13:39:14;;;;;;;10.52;9.43;;;;;;;;;;5090308;27;20051;-72
2022/11/28 13:41:39;;;;;;;10.57;9.48;;;;;;;;;;5013888;28;20044;-72
2022/11/28 13:44:14;;;;;;;9.75;8.85;;;;;;;;;;5034140;28;20342;-74
2022/11/28 13:46:39;;;;;;;12.25;11.05;;;;;;;;;;5025718;28;20052;-71
2022/11/28 13:49:24;;;;;;;8.68;7.88;;;;;;;;;;5038216;28;20035;-72
2022/11/28 13:52:08;;;;;;;14.57;13.02;;;;;;;;;;5011520;28;20043;-72
2022/11/28 13:54:33;;;;;;;10.85;9.85;;;;;;;;;;5016704;28;20032;-74
2022/11/28 13:57:10;;;;;;;12.30;11.05;;;;;;;;;;5036299;28;20459;-72
2022/11/28 13:59:35;;;;;;;13.07;11.75;;;;;;;;;;5036779;28;20072;-72
2022/11/28 14:02:03;;;;;;;12.20;11.00;;;;;;;;;;5036071;28;20067;-73
2022/11/28 14:04:29;;;;;;;19.20;16.58;;;;;;;;;;5034208;28;20134;-72
2022/11/28 14:07:05;;;;;;;14.95;12.70;;;;;;;;;;5015028;28;20349;-72
2022/11/28 14:09:48;;;;;;;15.45;13.85;;;;;;;;;;5016376;28;20041;-73
2022/11/28 14:12:22;;;;;;;14.82;13.35;;;;;;;;;;5013864;28;20033;-72
2022/11/28 14:14:56;;;;;;;14.52;13.13;;;;;;;;;;5013179;28;20431;-72
2022/11/28 14:17:29;;;;;;;20.98;18.77;;;;;;;;;;5028346;28;20120;-73
2022/11/28 14:20:00;;;;;;;16.75;15.15;;;;;;;;;;5089464;27;20076;-72
2022/11/28 14:22:45;;;;;;;23.98;21.40;;;;;;;;;;5095766;27;20030;-72
2022/11/28 14:25:10;;;;;;;17.95;16.05;;;;;;;;;;5103441;28;20040;-72
2022/11/28 14:27:38;;;;;;;18.42;16.08;;;;;;;;;;5092856;27;20042;-73